sensor_id;sensor_type;location;lat;lon;timestamp;P1;durP1;ratioP1;P2;durP2;ratioP2
42700;SDS011;28316;49.504;8.526;2023-07-28T00:02:07;4.15;;;2.20;;
42700;SDS011;28316;49.504;8.526;2023-07-28T00:04:36;4.40;;;1.85;;
42700;SDS011;28316;49.504;8.526;2023-07-28T00:07:03;3.47;;;1.67;;
42700;SDS011;28316;49.504;8.526;2023-07-28T00:09:29;4.78;;;2.17;;
42700;SDS011;28316;49.504;8.526;2023-07-28T00:11:59;4.43;;;2.08;;
42700;SDS011;28316;49.504;8.526;2023-07-28T00:14:26;4.72;;;1.75;;
42700;SDS011;28316;49.504;8.526;2023-07-28T00:16:56;4.28;;;2.05;;
42700;SDS011;28316;49.504;8.526;2023-07-28T00:19:22;3.13;;;1.80;;
42700;SDS011;28316;49.504;8.526;2023-07-28T00:21:48;4.72;;;2.40;;
42700;SDS011;28316;49.504;8.526;2023-07-28T00:24:17;7.60;;;1.70;;
42700;SDS011;28316;49.504;8.526;2023-07-28T00:26:43;6.13;;;2.03;;
42700;SDS011;28316;49.504;8.526;2023-07-28T00:29:10;2.95;;;1.42;;
42700;SDS011;28316;49.504;8.526;2023-07-28T00:31:35;4.22;;;2.30;;
42700;SDS011;28316;49.504;8.526;2023-07-28T00:34:01;3.30;;;1.98;;
42700;SDS011;28316;49.504;8.526;2023-07-28T00:36:28;3.45;;;1.73;;
42700;SDS011;28316;49.504;8.526;2023-07-28T00:38:55;3.72;;;1.52;;
42700;SDS011;28316;49.504;8.526;2023-07-28T00:41:21;3.35;;;1.17;;
42700;SDS011;28316;49.504;8.526;2023-07-28T00:43:47;2.97;;;1.25;;
42700;SDS011;28316;49.504;8.526;2023-07-28T00:46:12;3.10;;;1.20;;
42700;SDS011;28316;49.504;8.526;2023-07-28T00:48:39;2.47;;;1.05;;
42700;SDS011;28316;49.504;8.526;2023-07-28T00:51:05;2.83;;;1.73;;
42700;SDS011;28316;49.504;8.526;2023-07-28T00:53:32;3.03;;;1.42;;
42700;SDS011;28316;49.504;8.526;2023-07-28T00:55:58;4.05;;;2.05;;
42700;SDS011;28316;49.504;8.526;2023-07-28T00:58:25;2.60;;;1.50;;
42700;SDS011;28316;49.504;8.526;2023-07-28T01:00:52;2.80;;;1.80;;
42700;SDS011;28316;49.504;8.526;2023-07-28T01:03:18;3.83;;;1.65;;
42700;SDS011;28316;49.504;8.526;2023-07-28T01:11:21;6.80;;;2.58;;
42700;SDS011;28316;49.504;8.526;2023-07-28T01:13:47;8.40;;;1.90;;
42700;SDS011;28316;49.504;8.526;2023-07-28T01:16:12;8.77;;;1.95;;
42700;SDS011;28316;49.504;8.526;2023-07-28T01:18:39;5.95;;;1.65;;
42700;SDS011;28316;49.504;8.526;2023-07-28T01:21:06;4.35;;;1.92;;
42700;SDS011;28316;49.504;8.526;2023-07-28T01:23:51;3.15;;;1.75;;
42700;SDS011;28316;49.504;8.526;2023-07-28T01:26:40;5.15;;;1.58;;
42700;SDS011;28316;49.504;8.526;2023-07-28T01:29:06;3.55;;;1.85;;
42700;SDS011;28316;49.504;8.526;2023-07-28T01:31:32;2.83;;;1.35;;
42700;SDS011;28316;49.504;8.526;2023-07-28T01:33:58;3.95;;;1.80;;
42700;SDS011;28316;49.504;8.526;2023-07-28T01:36:24;3.10;;;1.58;;
42700;SDS011;28316;49.504;8.526;2023-07-28T01:38:49;3.45;;;1.60;;
42700;SDS011;28316;49.504;8.526;2023-07-28T01:41:15;3.33;;;1.27;;
42700;SDS011;28316;49.504;8.526;2023-07-28T01:43:41;3.65;;;1.80;;
42700;SDS011;28316;49.504;8.526;2023-07-28T01:46:07;3.13;;;1.63;;
42700;SDS011;28316;49.504;8.526;2023-07-28T01:48:33;3.55;;;1.98;;
42700;SDS011;28316;49.504;8.526;2023-07-28T01:50:59;2.80;;;1.60;;
42700;SDS011;28316;49.504;8.526;2023-07-28T01:53:24;2.75;;;1.50;;
42700;SDS011;28316;49.504;8.526;2023-07-28T01:55:50;2.78;;;1.30;;
42700;SDS011;28316;49.504;8.526;2023-07-28T01:58:17;3.17;;;1.65;;
42700;SDS011;28316;49.504;8.526;2023-07-28T02:00:43;3.03;;;1.67;;
42700;SDS011;28316;49.504;8.526;2023-07-28T02:03:09;2.70;;;1.55;;
42700;SDS011;28316;49.504;8.526;2023-07-28T02:05:34;3.38;;;1.60;;
42700;SDS011;28316;49.504;8.526;2023-07-28T02:08:00;4.47;;;1.75;;
42700;SDS011;28316;49.504;8.526;2023-07-28T02:10:26;2.92;;;1.52;;
42700;SDS011;28316;49.504;8.526;2023-07-28T02:12:53;4.10;;;2.08;;
42700;SDS011;28316;49.504;8.526;2023-07-28T02:15:19;4.80;;;1.77;;
42700;SDS011;28316;49.504;8.526;2023-07-28T02:17:45;1.73;;;0.85;;
42700;SDS011;28316;49.504;8.526;2023-07-28T02:20:11;3.55;;;1.13;;
42700;SDS011;28316;49.504;8.526;2023-07-28T02:22:44;2.08;;;1.25;;
42700;SDS011;28316;49.504;8.526;2023-07-28T02:25:10;4.72;;;0.93;;
42700;SDS011;28316;49.504;8.526;2023-07-28T02:27:36;2.08;;;0.88;;
42700;SDS011;28316;49.504;8.526;2023-07-28T02:30:04;2.05;;;0.98;;
42700;SDS011;28316;49.504;8.526;2023-07-28T02:32:31;2.28;;;0.90;;
42700;SDS011;28316;49.504;8.526;2023-07-28T02:34:57;2.33;;;1.10;;
42700;SDS011;28316;49.504;8.526;2023-07-28T02:37:24;2.45;;;1.23;;
42700;SDS011;28316;49.504;8.526;2023-07-28T02:39:50;2.30;;;1.40;;
42700;SDS011;28316;49.504;8.526;2023-07-28T02:42:16;2.47;;;1.50;;
42700;SDS011;28316;49.504;8.526;2023-07-28T02:44:42;2.25;;;0.70;;
42700;SDS011;28316;49.504;8.526;2023-07-28T02:47:08;1.88;;;0.90;;
42700;SDS011;28316;49.504;8.526;2023-07-28T02:49:33;2.17;;;1.25;;
42700;SDS011;28316;49.504;8.526;2023-07-28T02:51:59;2.95;;;1.45;;
42700;SDS011;28316;49.504;8.526;2023-07-28T02:54:25;3.13;;;1.10;;
42700;SDS011;28316;49.504;8.526;2023-07-28T02:56:51;2.00;;;1.27;;
42700;SDS011;28316;49.504;8.526;2023-07-28T02:59:17;2.85;;;1.40;;
42700;SDS011;28316;49.504;8.526;2023-07-28T03:01:43;4.68;;;2.13;;
42700;SDS011;28316;49.504;8.526;2023-07-28T03:04:09;3.63;;;1.80;;
42700;SDS011;28316;49.504;8.526;2023-07-28T03:06:34;3.58;;;1.77;;
42700;SDS011;28316;49.504;8.526;2023-07-28T03:09:00;3.10;;;1.90;;
42700;SDS011;28316;49.504;8.526;2023-07-28T03:11:26;5.28;;;1.95;;
42700;SDS011;28316;49.504;8.526;2023-07-28T03:13:52;4.00;;;2.13;;
42700;SDS011;28316;49.504;8.526;2023-07-28T03:16:17;3.63;;;1.92;;
42700;SDS011;28316;49.504;8.526;2023-07-28T03:18:43;6.18;;;2.38;;
42700;SDS011;28316;49.504;8.526;2023-07-28T03:21:09;4.47;;;2.30;;
42700;SDS011;28316;49.504;8.526;2023-07-28T03:23:35;2.90;;;1.83;;
42700;SDS011;28316;49.504;8.526;2023-07-28T03:26:01;2.45;;;1.60;;
42700;SDS011;28316;49.504;8.526;2023-07-28T03:28:26;3.88;;;2.08;;
42700;SDS011;28316;49.504;8.526;2023-07-28T03:30:52;5.25;;;1.90;;
42700;SDS011;28316;49.504;8.526;2023-07-28T03:33:18;6.15;;;2.03;;
42700;SDS011;28316;49.504;8.526;2023-07-28T03:35:44;4.82;;;1.63;;
42700;SDS011;28316;49.504;8.526;2023-07-28T03:38:09;3.10;;;1.40;;
42700;SDS011;28316;49.504;8.526;2023-07-28T03:40:36;4.60;;;2.20;;
42700;SDS011;28316;49.504;8.526;2023-07-28T03:43:01;3.75;;;2.10;;
42700;SDS011;28316;49.504;8.526;2023-07-28T03:45:27;2.80;;;1.75;;
42700;SDS011;28316;49.504;8.526;2023-07-28T03:47:53;3.10;;;1.70;;
42700;SDS011;28316;49.504;8.526;2023-07-28T03:50:19;3.13;;;1.35;;
42700;SDS011;28316;49.504;8.526;2023-07-28T03:52:45;2.50;;;1.38;;
42700;SDS011;28316;49.504;8.526;2023-07-28T03:55:11;4.75;;;1.42;;
42700;SDS011;28316;49.504;8.526;2023-07-28T03:57:37;2.88;;;1.27;;
42700;SDS011;28316;49.504;8.526;2023-07-28T04:00:02;3.38;;;1.63;;
42700;SDS011;28316;49.504;8.526;2023-07-28T04:02:29;2.90;;;1.40;;
42700;SDS011;28316;49.504;8.526;2023-07-28T04:04:55;5.78;;;2.17;;
42700;SDS011;28316;49.504;8.526;2023-07-28T04:07:21;4.95;;;1.60;;
42700;SDS011;28316;49.504;8.526;2023-07-28T04:09:47;5.35;;;1.65;;
42700;SDS011;28316;49.504;8.526;2023-07-28T04:12:13;6.68;;;1.77;;
42700;SDS011;28316;49.504;8.526;2023-07-28T04:14:39;3.97;;;1.80;;
42700;SDS011;28316;49.504;8.526;2023-07-28T04:17:05;4.47;;;2.05;;
42700;SDS011;28316;49.504;8.526;2023-07-28T04:19:32;3.90;;;2.15;;
42700;SDS011;28316;49.504;8.526;2023-07-28T04:21:59;5.13;;;2.58;;
42700;SDS011;28316;49.504;8.526;2023-07-28T04:24:25;4.10;;;1.92;;
42700;SDS011;28316;49.504;8.526;2023-07-28T04:26:52;10.35;;;2.25;;
42700;SDS011;28316;49.504;8.526;2023-07-28T04:29:18;5.90;;;2.42;;
42700;SDS011;28316;49.504;8.526;2023-07-28T04:31:43;5.80;;;2.70;;
42700;SDS011;28316;49.504;8.526;2023-07-28T04:34:09;3.03;;;1.65;;
42700;SDS011;28316;49.504;8.526;2023-07-28T04:36:35;4.75;;;2.20;;
42700;SDS011;28316;49.504;8.526;2023-07-28T04:39:01;2.88;;;1.55;;
42700;SDS011;28316;49.504;8.526;2023-07-28T04:41:26;4.90;;;2.50;;
42700;SDS011;28316;49.504;8.526;2023-07-28T04:43:52;3.33;;;1.48;;
42700;SDS011;28316;49.504;8.526;2023-07-28T04:46:18;4.25;;;2.03;;
42700;SDS011;28316;49.504;8.526;2023-07-28T04:48:44;3.25;;;1.73;;
42700;SDS011;28316;49.504;8.526;2023-07-28T04:51:11;4.18;;;1.58;;
42700;SDS011;28316;49.504;8.526;2023-07-28T04:53:36;3.55;;;1.65;;
42700;SDS011;28316;49.504;8.526;2023-07-28T04:56:02;2.58;;;1.48;;
42700;SDS011;28316;49.504;8.526;2023-07-28T04:58:28;4.57;;;1.35;;
42700;SDS011;28316;49.504;8.526;2023-07-28T05:00:54;3.58;;;1.63;;
42700;SDS011;28316;49.504;8.526;2023-07-28T05:03:20;3.30;;;1.45;;
42700;SDS011;28316;49.504;8.526;2023-07-28T05:05:46;5.97;;;1.52;;
42700;SDS011;28316;49.504;8.526;2023-07-28T05:08:12;2.83;;;1.20;;
42700;SDS011;28316;49.504;8.526;2023-07-28T05:10:38;3.33;;;0.93;;
42700;SDS011;28316;49.504;8.526;2023-07-28T05:13:05;3.35;;;1.38;;
42700;SDS011;28316;49.504;8.526;2023-07-28T05:15:31;2.90;;;1.33;;
42700;SDS011;28316;49.504;8.526;2023-07-28T05:17:57;4.82;;;1.60;;
42700;SDS011;28316;49.504;8.526;2023-07-28T05:20:22;4.13;;;2.03;;
42700;SDS011;28316;49.504;8.526;2023-07-28T05:22:48;2.15;;;0.90;;
42700;SDS011;28316;49.504;8.526;2023-07-28T05:25:14;1.77;;;0.90;;
42700;SDS011;28316;49.504;8.526;2023-07-28T05:27:40;3.00;;;1.45;;
42700;SDS011;28316;49.504;8.526;2023-07-28T05:30:06;3.58;;;0.88;;
42700;SDS011;28316;49.504;8.526;2023-07-28T05:32:32;1.88;;;0.85;;
42700;SDS011;28316;49.504;8.526;2023-07-28T05:34:58;1.40;;;0.95;;
42700;SDS011;28316;49.504;8.526;2023-07-28T05:37:24;13.88;;;1.65;;
42700;SDS011;28316;49.504;8.526;2023-07-28T05:39:50;10.45;;;1.27;;
42700;SDS011;28316;49.504;8.526;2023-07-28T05:42:15;2.97;;;1.23;;
42700;SDS011;28316;49.504;8.526;2023-07-28T05:44:41;2.30;;;1.17;;
42700;SDS011;28316;49.504;8.526;2023-07-28T05:47:07;2.50;;;1.20;;
42700;SDS011;28316;49.504;8.526;2023-07-28T05:49:33;1.17;;;0.73;;
42700;SDS011;28316;49.504;8.526;2023-07-28T05:51:58;1.38;;;0.95;;
42700;SDS011;28316;49.504;8.526;2023-07-28T05:54:24;1.52;;;0.95;;
42700;SDS011;28316;49.504;8.526;2023-07-28T05:56:50;7.97;;;3.22;;
42700;SDS011;28316;49.504;8.526;2023-07-28T05:59:16;5.55;;;2.58;;
42700;SDS011;28316;49.504;8.526;2023-07-28T06:01:41;1.15;;;0.70;;
42700;SDS011;28316;49.504;8.526;2023-07-28T06:04:07;1.83;;;1.10;;
42700;SDS011;28316;49.504;8.526;2023-07-28T06:06:33;2.17;;;0.80;;
42700;SDS011;28316;49.504;8.526;2023-07-28T06:08:58;2.28;;;1.10;;
42700;SDS011;28316;49.504;8.526;2023-07-28T06:11:24;2.22;;;0.73;;
42700;SDS011;28316;49.504;8.526;2023-07-28T06:13:51;1.35;;;0.77;;
42700;SDS011;28316;49.504;8.526;2023-07-28T06:16:16;1.83;;;1.02;;
42700;SDS011;28316;49.504;8.526;2023-07-28T06:18:42;5.28;;;2.40;;
42700;SDS011;28316;49.504;8.526;2023-07-28T06:21:08;2.70;;;1.45;;
42700;SDS011;28316;49.504;8.526;2023-07-28T06:23:34;1.88;;;1.48;;
42700;SDS011;28316;49.504;8.526;2023-07-28T06:26:00;1.52;;;0.80;;
42700;SDS011;28316;49.504;8.526;2023-07-28T06:28:26;2.45;;;0.80;;
42700;SDS011;28316;49.504;8.526;2023-07-28T06:30:55;1.38;;;1.00;;
42700;SDS011;28316;49.504;8.526;2023-07-28T06:33:23;1.10;;;0.70;;
42700;SDS011;28316;49.504;8.526;2023-07-28T06:35:50;1.55;;;0.70;;
42700;SDS011;28316;49.504;8.526;2023-07-28T06:38:17;2.00;;;0.80;;
42700;SDS011;28316;49.504;8.526;2023-07-28T06:40:43;1.73;;;0.85;;
42700;SDS011;28316;49.504;8.526;2023-07-28T06:43:09;0.68;;;0.55;;
42700;SDS011;28316;49.504;8.526;2023-07-28T06:45:35;2.20;;;1.10;;
42700;SDS011;28316;49.504;8.526;2023-07-28T06:48:01;2.35;;;1.00;;
42700;SDS011;28316;49.504;8.526;2023-07-28T06:50:28;2.97;;;1.50;;
42700;SDS011;28316;49.504;8.526;2023-07-28T06:52:54;1.35;;;0.90;;
42700;SDS011;28316;49.504;8.526;2023-07-28T06:55:20;1.50;;;0.90;;
42700;SDS011;28316;49.504;8.526;2023-07-28T06:57:46;4.45;;;2.40;;
42700;SDS011;28316;49.504;8.526;2023-07-28T07:00:14;7.47;;;2.95;;
42700;SDS011;28316;49.504;8.526;2023-07-28T07:02:41;2.08;;;1.38;;
42700;SDS011;28316;49.504;8.526;2023-07-28T07:05:07;2.63;;;0.88;;
42700;SDS011;28316;49.504;8.526;2023-07-28T07:07:33;1.60;;;0.70;;
42700;SDS011;28316;49.504;8.526;2023-07-28T07:09:59;5.47;;;0.80;;
42700;SDS011;28316;49.504;8.526;2023-07-28T07:12:24;3.42;;;1.15;;
42700;SDS011;28316;49.504;8.526;2023-07-28T07:14:50;4.68;;;1.05;;
42700;SDS011;28316;49.504;8.526;2023-07-28T07:17:16;5.68;;;1.17;;
42700;SDS011;28316;49.504;8.526;2023-07-28T07:19:42;2.72;;;0.80;;
42700;SDS011;28316;49.504;8.526;2023-07-28T07:22:08;1.95;;;0.88;;
42700;SDS011;28316;49.504;8.526;2023-07-28T07:24:34;2.33;;;1.45;;
42700;SDS011;28316;49.504;8.526;2023-07-28T07:27:00;2.33;;;1.05;;
42700;SDS011;28316;49.504;8.526;2023-07-28T07:29:26;1.40;;;0.88;;
42700;SDS011;28316;49.504;8.526;2023-07-28T07:31:52;1.20;;;0.73;;
42700;SDS011;28316;49.504;8.526;2023-07-28T07:34:21;1.65;;;0.88;;
42700;SDS011;28316;49.504;8.526;2023-07-28T07:36:48;2.00;;;0.75;;
42700;SDS011;28316;49.504;8.526;2023-07-28T07:39:15;3.13;;;0.77;;
42700;SDS011;28316;49.504;8.526;2023-07-28T07:41:40;1.00;;;0.55;;
42700;SDS011;28316;49.504;8.526;2023-07-28T07:44:06;4.60;;;1.42;;
42700;SDS011;28316;49.504;8.526;2023-07-28T07:46:32;2.05;;;1.00;;
42700;SDS011;28316;49.504;8.526;2023-07-28T07:48:58;1.35;;;0.80;;
42700;SDS011;28316;49.504;8.526;2023-07-28T07:51:24;0.88;;;0.50;;
42700;SDS011;28316;49.504;8.526;2023-07-28T07:53:50;1.48;;;0.85;;
42700;SDS011;28316;49.504;8.526;2023-07-28T07:56:15;1.30;;;0.70;;
42700;SDS011;28316;49.504;8.526;2023-07-28T07:58:42;1.00;;;0.60;;
42700;SDS011;28316;49.504;8.526;2023-07-28T08:01:08;1.05;;;0.60;;
42700;SDS011;28316;49.504;8.526;2023-07-28T08:03:34;2.03;;;0.93;;
42700;SDS011;28316;49.504;8.526;2023-07-28T08:06:01;1.45;;;0.85;;
42700;SDS011;28316;49.504;8.526;2023-07-28T08:08:27;1.25;;;0.52;;
42700;SDS011;28316;49.504;8.526;2023-07-28T08:10:53;2.20;;;1.08;;
42700;SDS011;28316;49.504;8.526;2023-07-28T08:13:20;2.90;;;0.93;;
42700;SDS011;28316;49.504;8.526;2023-07-28T08:15:45;1.98;;;0.80;;
42700;SDS011;28316;49.504;8.526;2023-07-28T08:18:15;4.38;;;1.58;;
42700;SDS011;28316;49.504;8.526;2023-07-28T08:20:40;4.93;;;3.08;;
42700;SDS011;28316;49.504;8.526;2023-07-28T08:23:06;0.70;;;0.50;;
42700;SDS011;28316;49.504;8.526;2023-07-28T08:25:32;0.75;;;0.45;;
42700;SDS011;28316;49.504;8.526;2023-07-28T08:27:59;0.68;;;0.38;;
42700;SDS011;28316;49.504;8.526;2023-07-28T08:30:26;1.92;;;0.80;;
42700;SDS011;28316;49.504;8.526;2023-07-28T08:32:51;1.98;;;0.70;;
42700;SDS011;28316;49.504;8.526;2023-07-28T08:35:17;3.10;;;0.68;;
42700;SDS011;28316;49.504;8.526;2023-07-28T08:37:43;1.10;;;0.60;;
42700;SDS011;28316;49.504;8.526;2023-07-28T08:40:09;1.13;;;0.50;;
42700;SDS011;28316;49.504;8.526;2023-07-28T08:42:38;2.15;;;0.40;;
42700;SDS011;28316;49.504;8.526;2023-07-28T08:45:05;1.20;;;0.70;;
42700;SDS011;28316;49.504;8.526;2023-07-28T08:47:33;1.38;;;0.55;;
42700;SDS011;28316;49.504;8.526;2023-07-28T08:50:00;0.82;;;0.52;;
42700;SDS011;28316;49.504;8.526;2023-07-28T08:52:26;1.75;;;0.70;;
42700;SDS011;28316;49.504;8.526;2023-07-28T08:54:52;1.23;;;0.50;;
42700;SDS011;28316;49.504;8.526;2023-07-28T08:57:19;1.10;;;0.40;;
42700;SDS011;28316;49.504;8.526;2023-07-28T08:59:45;1.00;;;0.45;;
42700;SDS011;28316;49.504;8.526;2023-07-28T09:02:16;0.63;;;0.50;;
42700;SDS011;28316;49.504;8.526;2023-07-28T09:04:44;1.15;;;0.55;;
42700;SDS011;28316;49.504;8.526;2023-07-28T09:07:12;1.23;;;0.60;;
42700;SDS011;28316;49.504;8.526;2023-07-28T09:09:39;1.10;;;0.65;;
42700;SDS011;28316;49.504;8.526;2023-07-28T09:12:06;0.50;;;0.30;;
42700;SDS011;28316;49.504;8.526;2023-07-28T09:14:34;0.43;;;0.32;;
42700;SDS011;28316;49.504;8.526;2023-07-28T09:19:48;1.05;;;0.70;;
42700;SDS011;28316;49.504;8.526;2023-07-28T09:22:19;1.35;;;0.63;;
42700;SDS011;28316;49.504;8.526;2023-07-28T09:24:45;1.05;;;0.65;;
42700;SDS011;28316;49.504;8.526;2023-07-28T09:27:22;1.35;;;0.70;;
42700;SDS011;28316;49.504;8.526;2023-07-28T09:29:51;1.50;;;0.60;;
42700;SDS011;28316;49.504;8.526;2023-07-28T09:32:27;0.95;;;0.50;;
42700;SDS011;28316;49.504;8.526;2023-07-28T09:35:11;1.08;;;0.50;;
42700;SDS011;28316;49.504;8.526;2023-07-28T09:37:39;1.30;;;0.57;;
42700;SDS011;28316;49.504;8.526;2023-07-28T09:40:08;0.77;;;0.45;;
42700;SDS011;28316;49.504;8.526;2023-07-28T09:42:39;1.40;;;0.60;;
42700;SDS011;28316;49.504;8.526;2023-07-28T09:45:07;2.42;;;0.60;;
42700;SDS011;28316;49.504;8.526;2023-07-28T09:47:35;0.85;;;0.40;;
42700;SDS011;28316;49.504;8.526;2023-07-28T09:50:06;0.77;;;0.50;;
42700;SDS011;28316;49.504;8.526;2023-07-28T09:52:37;0.68;;;0.47;;
42700;SDS011;28316;49.504;8.526;2023-07-28T09:55:15;0.65;;;0.35;;
42700;SDS011;28316;49.504;8.526;2023-07-28T09:57:45;0.77;;;0.40;;
42700;SDS011;28316;49.504;8.526;2023-07-28T10:00:18;1.17;;;0.77;;
42700;SDS011;28316;49.504;8.526;2023-07-28T10:02:46;1.48;;;0.68;;
42700;SDS011;28316;49.504;8.526;2023-07-28T10:05:12;1.25;;;0.50;;
42700;SDS011;28316;49.504;8.526;2023-07-28T10:07:40;0.45;;;0.40;;
42700;SDS011;28316;49.504;8.526;2023-07-28T10:10:11;1.40;;;0.55;;
42700;SDS011;28316;49.504;8.526;2023-07-28T10:12:49;0.98;;;0.50;;
42700;SDS011;28316;49.504;8.526;2023-07-28T10:15:16;0.80;;;0.55;;
42700;SDS011;28316;49.504;8.526;2023-07-28T10:17:45;1.77;;;0.82;;
42700;SDS011;28316;49.504;8.526;2023-07-28T10:23:12;1.08;;;0.55;;
42700;SDS011;28316;49.504;8.526;2023-07-28T10:25:38;0.47;;;0.30;;
42700;SDS011;28316;49.504;8.526;2023-07-28T10:28:06;1.35;;;0.80;;
42700;SDS011;28316;49.504;8.526;2023-07-28T10:31:06;0.82;;;0.50;;
42700;SDS011;28316;49.504;8.526;2023-07-28T10:33:45;0.88;;;0.50;;
42700;SDS011;28316;49.504;8.526;2023-07-28T10:36:14;0.73;;;0.40;;
42700;SDS011;28316;49.504;8.526;2023-07-28T10:39:00;1.63;;;0.80;;
42700;SDS011;28316;49.504;8.526;2023-07-28T10:41:28;1.98;;;0.93;;
42700;SDS011;28316;49.504;8.526;2023-07-28T10:43:55;1.35;;;0.52;;
42700;SDS011;28316;49.504;8.526;2023-07-28T10:46:21;1.35;;;0.60;;
42700;SDS011;28316;49.504;8.526;2023-07-28T10:48:48;0.68;;;0.55;;
42700;SDS011;28316;49.504;8.526;2023-07-28T10:51:22;3.10;;;1.08;;
42700;SDS011;28316;49.504;8.526;2023-07-28T10:53:59;1.73;;;0.70;;
42700;SDS011;28316;49.504;8.526;2023-07-28T10:56:27;1.67;;;0.80;;
42700;SDS011;28316;49.504;8.526;2023-07-28T10:58:57;1.20;;;0.68;;
42700;SDS011;28316;49.504;8.526;2023-07-28T11:04:10;1.33;;;0.68;;
42700;SDS011;28316;49.504;8.526;2023-07-28T11:06:40;2.80;;;1.02;;
42700;SDS011;28316;49.504;8.526;2023-07-28T11:09:11;1.83;;;1.10;;
42700;SDS011;28316;49.504;8.526;2023-07-28T11:11:39;1.38;;;0.77;;
42700;SDS011;28316;49.504;8.526;2023-07-28T11:14:07;2.10;;;1.00;;
42700;SDS011;28316;49.504;8.526;2023-07-28T11:16:38;4.82;;;1.27;;
42700;SDS011;28316;49.504;8.526;2023-07-28T11:19:10;2.20;;;1.20;;
42700;SDS011;28316;49.504;8.526;2023-07-28T11:21:39;1.33;;;0.68;;
42700;SDS011;28316;49.504;8.526;2023-07-28T11:24:17;1.80;;;1.15;;
42700;SDS011;28316;49.504;8.526;2023-07-28T11:26:44;2.33;;;1.30;;
42700;SDS011;28316;49.504;8.526;2023-07-28T11:29:11;1.80;;;0.63;;
42700;SDS011;28316;49.504;8.526;2023-07-28T11:31:37;1.80;;;1.00;;
42700;SDS011;28316;49.504;8.526;2023-07-28T11:34:12;2.05;;;1.13;;
42700;SDS011;28316;49.504;8.526;2023-07-28T11:36:39;1.10;;;0.63;;
42700;SDS011;28316;49.504;8.526;2023-07-28T11:39:06;6.05;;;1.38;;
42700;SDS011;28316;49.504;8.526;2023-07-28T11:41:32;1.35;;;0.80;;
42700;SDS011;28316;49.504;8.526;2023-07-28T11:43:59;2.25;;;1.20;;
42700;SDS011;28316;49.504;8.526;2023-07-28T11:49:17;4.40;;;1.05;;
42700;SDS011;28316;49.504;8.526;2023-07-28T11:54:15;1.77;;;1.10;;
42700;SDS011;28316;49.504;8.526;2023-07-28T11:56:47;2.08;;;0.90;;
42700;SDS011;28316;49.504;8.526;2023-07-28T11:59:15;1.85;;;0.60;;
42700;SDS011;28316;49.504;8.526;2023-07-28T12:07:01;1.42;;;0.50;;
42700;SDS011;28316;49.504;8.526;2023-07-28T12:09:52;1.33;;;0.90;;
42700;SDS011;28316;49.504;8.526;2023-07-28T12:12:18;1.67;;;0.60;;
42700;SDS011;28316;49.504;8.526;2023-07-28T12:14:48;2.28;;;0.93;;
42700;SDS011;28316;49.504;8.526;2023-07-28T12:17:19;3.80;;;0.70;;
42700;SDS011;28316;49.504;8.526;2023-07-28T12:20:07;2.30;;;0.88;;
42700;SDS011;28316;49.504;8.526;2023-07-28T12:22:39;2.53;;;0.60;;
42700;SDS011;28316;49.504;8.526;2023-07-28T12:25:06;0.82;;;0.63;;
42700;SDS011;28316;49.504;8.526;2023-07-28T12:27:33;0.85;;;0.45;;
42700;SDS011;28316;49.504;8.526;2023-07-28T12:30:00;1.10;;;0.60;;
42700;SDS011;28316;49.504;8.526;2023-07-28T12:32:28;1.25;;;0.63;;
42700;SDS011;28316;49.504;8.526;2023-07-28T12:34:53;1.30;;;0.70;;
42700;SDS011;28316;49.504;8.526;2023-07-28T12:37:19;1.35;;;0.73;;
42700;SDS011;28316;49.504;8.526;2023-07-28T12:39:47;2.55;;;0.63;;
42700;SDS011;28316;49.504;8.526;2023-07-28T12:42:13;1.23;;;0.77;;
42700;SDS011;28316;49.504;8.526;2023-07-28T12:44:40;3.17;;;1.13;;
42700;SDS011;28316;49.504;8.526;2023-07-28T12:47:07;0.65;;;0.50;;
42700;SDS011;28316;49.504;8.526;2023-07-28T12:49:33;1.60;;;0.70;;
42700;SDS011;28316;49.504;8.526;2023-07-28T12:52:00;1.25;;;0.52;;
42700;SDS011;28316;49.504;8.526;2023-07-28T12:54:29;1.13;;;0.70;;
42700;SDS011;28316;49.504;8.526;2023-07-28T12:56:55;1.08;;;0.40;;
42700;SDS011;28316;49.504;8.526;2023-07-28T12:59:20;0.40;;;0.30;;
42700;SDS011;28316;49.504;8.526;2023-07-28T13:01:46;1.17;;;0.32;;
42700;SDS011;28316;49.504;8.526;2023-07-28T13:04:12;0.95;;;0.40;;
42700;SDS011;28316;49.504;8.526;2023-07-28T13:06:38;1.15;;;0.43;;
42700;SDS011;28316;49.504;8.526;2023-07-28T13:09:06;0.98;;;0.73;;
42700;SDS011;28316;49.504;8.526;2023-07-28T13:11:33;0.90;;;0.60;;
42700;SDS011;28316;49.504;8.526;2023-07-28T13:13:59;1.25;;;0.40;;
42700;SDS011;28316;49.504;8.526;2023-07-28T13:16:25;1.02;;;0.47;;
42700;SDS011;28316;49.504;8.526;2023-07-28T13:18:51;0.43;;;0.17;;
42700;SDS011;28316;49.504;8.526;2023-07-28T13:21:18;1.15;;;0.60;;
42700;SDS011;28316;49.504;8.526;2023-07-28T13:23:43;0.85;;;0.60;;
42700;SDS011;28316;49.504;8.526;2023-07-28T13:26:09;0.40;;;0.40;;
42700;SDS011;28316;49.504;8.526;2023-07-28T13:28:35;0.77;;;0.40;;
42700;SDS011;28316;49.504;8.526;2023-07-28T13:31:02;1.63;;;0.90;;
42700;SDS011;28316;49.504;8.526;2023-07-28T13:33:29;1.77;;;0.65;;
42700;SDS011;28316;49.504;8.526;2023-07-28T13:35:55;5.70;;;0.90;;
42700;SDS011;28316;49.504;8.526;2023-07-28T13:38:21;0.90;;;0.60;;
42700;SDS011;28316;49.504;8.526;2023-07-28T13:40:47;2.08;;;1.15;;
42700;SDS011;28316;49.504;8.526;2023-07-28T13:43:13;1.48;;;0.68;;
42700;SDS011;28316;49.504;8.526;2023-07-28T13:45:39;1.08;;;0.52;;
42700;SDS011;28316;49.504;8.526;2023-07-28T13:48:04;1.98;;;0.90;;
42700;SDS011;28316;49.504;8.526;2023-07-28T13:50:30;1.02;;;0.60;;
42700;SDS011;28316;49.504;8.526;2023-07-28T13:52:56;1.10;;;0.68;;
42700;SDS011;28316;49.504;8.526;2023-07-28T13:55:22;3.42;;;1.20;;
42700;SDS011;28316;49.504;8.526;2023-07-28T13:57:48;4.07;;;1.23;;
42700;SDS011;28316;49.504;8.526;2023-07-28T14:00:13;2.10;;;1.02;;
42700;SDS011;28316;49.504;8.526;2023-07-28T14:02:39;1.65;;;0.82;;
42700;SDS011;28316;49.504;8.526;2023-07-28T14:05:06;2.35;;;1.20;;
42700;SDS011;28316;49.504;8.526;2023-07-28T14:07:32;2.35;;;1.05;;
42700;SDS011;28316;49.504;8.526;2023-07-28T14:09:59;2.70;;;1.23;;
42700;SDS011;28316;49.504;8.526;2023-07-28T14:12:26;2.58;;;1.40;;
42700;SDS011;28316;49.504;8.526;2023-07-28T14:14:52;2.70;;;1.50;;
42700;SDS011;28316;49.504;8.526;2023-07-28T14:17:17;9.00;;;2.28;;
42700;SDS011;28316;49.504;8.526;2023-07-28T14:19:43;2.67;;;1.60;;
42700;SDS011;28316;49.504;8.526;2023-07-28T14:22:09;3.60;;;1.83;;
42700;SDS011;28316;49.504;8.526;2023-07-28T14:24:35;3.63;;;1.55;;
42700;SDS011;28316;49.504;8.526;2023-07-28T14:27:01;2.20;;;1.33;;
42700;SDS011;28316;49.504;8.526;2023-07-28T14:29:27;3.03;;;1.45;;
42700;SDS011;28316;49.504;8.526;2023-07-28T14:31:53;2.38;;;1.40;;
42700;SDS011;28316;49.504;8.526;2023-07-28T14:34:19;2.83;;;1.42;;
42700;SDS011;28316;49.504;8.526;2023-07-28T14:36:45;8.50;;;2.20;;
42700;SDS011;28316;49.504;8.526;2023-07-28T14:39:10;7.55;;;1.67;;
42700;SDS011;28316;49.504;8.526;2023-07-28T14:41:36;6.82;;;2.10;;
42700;SDS011;28316;49.504;8.526;2023-07-28T14:44:02;3.30;;;1.60;;
42700;SDS011;28316;49.504;8.526;2023-07-28T14:46:28;7.93;;;1.65;;
42700;SDS011;28316;49.504;8.526;2023-07-28T14:48:54;3.67;;;1.40;;
42700;SDS011;28316;49.504;8.526;2023-07-28T14:51:20;3.30;;;1.40;;
42700;SDS011;28316;49.504;8.526;2023-07-28T14:53:48;3.65;;;1.92;;
42700;SDS011;28316;49.504;8.526;2023-07-28T14:56:14;3.17;;;1.35;;
42700;SDS011;28316;49.504;8.526;2023-07-28T14:58:41;3.47;;;1.63;;
42700;SDS011;28316;49.504;8.526;2023-07-28T15:01:09;2.08;;;0.85;;
42700;SDS011;28316;49.504;8.526;2023-07-28T15:03:36;3.10;;;1.50;;
42700;SDS011;28316;49.504;8.526;2023-07-28T15:06:02;3.85;;;1.20;;
42700;SDS011;28316;49.504;8.526;2023-07-28T15:08:29;3.05;;;1.40;;
42700;SDS011;28316;49.504;8.526;2023-07-28T15:10:55;2.72;;;1.63;;
42700;SDS011;28316;49.504;8.526;2023-07-28T15:13:22;1.80;;;0.98;;